sensor_id;sensor_type;location;lat;lon;timestamp;temperature;humidity
72650;SHT31;61467;50.674;4.618;2022-08-20T00:00:14;19.79;74.44
72650;SHT31;61467;50.674;4.618;2022-08-20T00:02:43;20.06;73.41
72650;SHT31;61467;50.674;4.618;2022-08-20T00:05:10;20.10;73.71
72650;SHT31;61467;50.674;4.618;2022-08-20T00:07:37;20.10;73.42
72650;SHT31;61467;50.674;4.618;2022-08-20T00:10:07;20.14;73.43
72650;SHT31;61467;50.674;4.618;2022-08-20T00:12:35;20.21;73.12
72650;SHT31;61467;50.674;4.618;2022-08-20T00:15:04;20.16;73.06
72650;SHT31;61467;50.674;4.618;2022-08-20T00:17:31;20.38;72.23
72650;SHT31;61467;50.674;4.618;2022-08-20T00:19:59;20.10;73.24
72650;SHT31;61467;50.674;4.618;2022-08-20T00:22:26;20.04;73.21
72650;SHT31;61467;50.674;4.618;2022-08-20T00:24:53;20.10;73.19
72650;SHT31;61467;50.674;4.618;2022-08-20T00:27:21;20.17;72.97
72650;SHT31;61467;50.674;4.618;2022-08-20T00:29:48;19.98;72.79
72650;SHT31;61467;50.674;4.618;2022-08-20T00:32:14;19.77;74.07
72650;SHT31;61467;50.674;4.618;2022-08-20T00:34:41;19.69;74.53
72650;SHT31;61467;50.674;4.618;2022-08-20T00:37:08;19.63;74.64
72650;SHT31;61467;50.674;4.618;2022-08-20T00:39:35;19.90;73.68
72650;SHT31;61467;50.674;4.618;2022-08-20T00:42:02;19.96;73.40
72650;SHT31;61467;50.674;4.618;2022-08-20T00:44:30;19.70;73.75
72650;SHT31;61467;50.674;4.618;2022-08-20T00:46:57;19.83;73.65
72650;SHT31;61467;50.674;4.618;2022-08-20T00:49:26;19.59;73.32
72650;SHT31;61467;50.674;4.618;2022-08-20T00:52:06;19.65;72.27
72650;SHT31;61467;50.674;4.618;2022-08-20T00:54:37;19.69;72.47
72650;SHT31;61467;50.674;4.618;2022-08-20T00:57:06;19.35;73.48
72650;SHT31;61467;50.674;4.618;2022-08-20T00:59:36;19.39;73.41
72650;SHT31;61467;50.674;4.618;2022-08-20T01:02:07;19.29;74.02
72650;SHT31;61467;50.674;4.618;2022-08-20T01:04:35;19.43;73.64
72650;SHT31;61467;50.674;4.618;2022-08-20T01:07:03;19.69;72.72
72650;SHT31;61467;50.674;4.618;2022-08-20T01:09:31;19.52;73.17
72650;SHT31;61467;50.674;4.618;2022-08-20T01:11:57;19.15;74.15
72650;SHT31;61467;50.674;4.618;2022-08-20T01:14:24;19.32;73.68
72650;SHT31;61467;50.674;4.618;2022-08-20T01:17:03;19.15;74.05
72650;SHT31;61467;50.674;4.618;2022-08-20T01:19:34;19.32;73.95
72650;SHT31;61467;50.674;4.618;2022-08-20T01:22:02;19.36;73.53
72650;SHT31;61467;50.674;4.618;2022-08-20T01:24:54;19.31;73.44
72650;SHT31;61467;50.674;4.618;2022-08-20T01:27:23;19.11;73.86
72650;SHT31;61467;50.674;4.618;2022-08-20T01:29:50;18.92;74.32
72650;SHT31;61467;50.674;4.618;2022-08-20T01:32:17;18.88;74.12
72650;SHT31;61467;50.674;4.618;2022-08-20T01:34:44;19.00;73.82
72650;SHT31;61467;50.674;4.618;2022-08-20T01:37:10;18.95;74.04
72650;SHT31;61467;50.674;4.618;2022-08-20T01:39:37;19.00;74.01
72650;SHT31;61467;50.674;4.618;2022-08-20T01:42:08;18.88;74.40
72650;SHT31;61467;50.674;4.618;2022-08-20T01:44:40;18.85;74.58
72650;SHT31;61467;50.674;4.618;2022-08-20T01:47:11;18.78;74.87
72650;SHT31;61467;50.674;4.618;2022-08-20T01:49:40;18.64;75.09
72650;SHT31;61467;50.674;4.618;2022-08-20T01:52:10;18.83;74.78
72650;SHT31;61467;50.674;4.618;2022-08-20T01:54:39;18.59;75.26
72650;SHT31;61467;50.674;4.618;2022-08-20T01:57:12;18.43;76.21
72650;SHT31;61467;50.674;4.618;2022-08-20T01:59:41;18.61;75.39
72650;SHT31;61467;50.674;4.618;2022-08-20T02:02:09;18.67;75.10
72650;SHT31;61467;50.674;4.618;2022-08-20T02:04:36;18.64;74.93
72650;SHT31;61467;50.674;4.618;2022-08-20T02:07:04;18.68;74.64
72650;SHT31;61467;50.674;4.618;2022-08-20T02:09:34;18.44;75.29
72650;SHT31;61467;50.674;4.618;2022-08-20T02:12:03;18.30;75.47
72650;SHT31;61467;50.674;4.618;2022-08-20T02:14:30;18.20;75.72
72650;SHT31;61467;50.674;4.618;2022-08-20T02:16:58;18.29;75.34
72650;SHT31;61467;50.674;4.618;2022-08-20T02:19:28;18.09;76.07
72650;SHT31;61467;50.674;4.618;2022-08-20T02:22:00;17.98;76.41
72650;SHT31;61467;50.674;4.618;2022-08-20T02:24:28;18.12;76.02
72650;SHT31;61467;50.674;4.618;2022-08-20T02:26:55;18.16;75.55
72650;SHT31;61467;50.674;4.618;2022-08-20T02:29:22;18.02;76.12
72650;SHT31;61467;50.674;4.618;2022-08-20T02:31:50;18.22;75.45
72650;SHT31;61467;50.674;4.618;2022-08-20T02:34:20;18.28;75.03
72650;SHT31;61467;50.674;4.618;2022-08-20T02:36:46;18.20;75.41
72650;SHT31;61467;50.674;4.618;2022-08-20T02:39:14;18.08;75.59
72650;SHT31;61467;50.674;4.618;2022-08-20T02:41:41;18.12;75.49
72650;SHT31;61467;50.674;4.618;2022-08-20T02:44:08;18.08;75.77
72650;SHT31;61467;50.674;4.618;2022-08-20T02:46:35;17.96;76.16
72650;SHT31;61467;50.674;4.618;2022-08-20T02:49:03;18.08;75.97
72650;SHT31;61467;50.674;4.618;2022-08-20T02:51:31;18.13;75.38
72650;SHT31;61467;50.674;4.618;2022-08-20T02:53:58;17.96;75.96
72650;SHT31;61467;50.674;4.618;2022-08-20T02:56:25;18.01;75.56
72650;SHT31;61467;50.674;4.618;2022-08-20T02:58:51;17.91;75.88
72650;SHT31;61467;50.674;4.618;2022-08-20T03:01:18;17.50;77.57
72650;SHT31;61467;50.674;4.618;2022-08-20T03:03:45;17.67;76.92
72650;SHT31;61467;50.674;4.618;2022-08-20T03:06:13;17.75;76.47
72650;SHT31;61467;50.674;4.618;2022-08-20T03:08:42;17.86;76.38
72650;SHT31;61467;50.674;4.618;2022-08-20T03:11:09;17.70;76.77
72650;SHT31;61467;50.674;4.618;2022-08-20T03:13:36;17.68;76.69
72650;SHT31;61467;50.674;4.618;2022-08-20T03:16:04;17.81;76.48
72650;SHT31;61467;50.674;4.618;2022-08-20T03:18:33;17.85;76.09
72650;SHT31;61467;50.674;4.618;2022-08-20T03:21:01;17.52;77.16
72650;SHT31;61467;50.674;4.618;2022-08-20T03:23:29;17.58;77.27
72650;SHT31;61467;50.674;4.618;2022-08-20T03:25:57;17.68;76.75
72650;SHT31;61467;50.674;4.618;2022-08-20T03:28:24;17.58;76.97
72650;SHT31;61467;50.674;4.618;2022-08-20T03:30:52;17.67;76.86
72650;SHT31;61467;50.674;4.618;2022-08-20T03:33:21;17.68;76.60
72650;SHT31;61467;50.674;4.618;2022-08-20T03:35:48;17.68;76.64
72650;SHT31;61467;50.674;4.618;2022-08-20T03:38:16;17.65;76.57
72650;SHT31;61467;50.674;4.618;2022-08-20T03:40:44;17.64;76.66
72650;SHT31;61467;50.674;4.618;2022-08-20T03:43:12;17.55;77.21
72650;SHT31;61467;50.674;4.618;2022-08-20T03:45:40;17.44;77.33
72650;SHT31;61467;50.674;4.618;2022-08-20T03:48:10;17.40;77.67
72650;SHT31;61467;50.674;4.618;2022-08-20T03:50:37;17.52;77.04
72650;SHT31;61467;50.674;4.618;2022-08-20T03:53:07;17.55;77.04
72650;SHT31;61467;50.674;4.618;2022-08-20T03:55:34;17.52;76.89
72650;SHT31;61467;50.674;4.618;2022-08-20T03:58:04;17.61;76.67
72650;SHT31;61467;50.674;4.618;2022-08-20T04:00:38;17.52;76.63
72650;SHT31;61467;50.674;4.618;2022-08-20T04:03:06;17.44;77.09
72650;SHT31;61467;50.674;4.618;2022-08-20T04:05:35;17.50;76.90
72650;SHT31;61467;50.674;4.618;2022-08-20T04:08:05;17.48;76.88
72650;SHT31;61467;50.674;4.618;2022-08-20T04:10:34;17.33;77.41
72650;SHT31;61467;50.674;4.618;2022-08-20T04:13:02;17.34;77.24
72650;SHT31;61467;50.674;4.618;2022-08-20T04:15:29;17.51;76.93
72650;SHT31;61467;50.674;4.618;2022-08-20T04:17:57;17.35;77.26
72650;SHT31;61467;50.674;4.618;2022-08-20T04:20:25;17.34;77.53
72650;SHT31;61467;50.674;4.618;2022-08-20T04:22:53;17.37;77.31
72650;SHT31;61467;50.674;4.618;2022-08-20T04:25:21;17.37;77.38
72650;SHT31;61467;50.674;4.618;2022-08-20T04:27:48;17.43;77.01
72650;SHT31;61467;50.674;4.618;2022-08-20T04:30:17;17.40;77.31
72650;SHT31;61467;50.674;4.618;2022-08-20T04:32:44;17.43;77.31
72650;SHT31;61467;50.674;4.618;2022-08-20T04:35:15;17.26;77.73
72650;SHT31;61467;50.674;4.618;2022-08-20T04:37:43;17.17;78.27
72650;SHT31;61467;50.674;4.618;2022-08-20T04:40:13;17.28;77.91
72650;SHT31;61467;50.674;4.618;2022-08-20T04:42:57;17.33;77.75
72650;SHT31;61467;50.674;4.618;2022-08-20T04:45:24;17.21;78.14
72650;SHT31;61467;50.674;4.618;2022-08-20T04:47:51;17.13;78.41
72650;SHT31;61467;50.674;4.618;2022-08-20T04:50:19;17.23;78.40
72650;SHT31;61467;50.674;4.618;2022-08-20T04:52:46;17.31;77.91
72650;SHT31;61467;50.674;4.618;2022-08-20T04:55:15;17.37;77.46
72650;SHT31;61467;50.674;4.618;2022-08-20T04:57:43;17.16;77.83
72650;SHT31;61467;50.674;4.618;2022-08-20T05:00:14;17.20;77.90
72650;SHT31;61467;50.674;4.618;2022-08-20T05:02:42;17.13;78.01
72650;SHT31;61467;50.674;4.618;2022-08-20T05:05:09;17.19;77.93
72650;SHT31;61467;50.674;4.618;2022-08-20T05:07:39;17.41;77.11
72650;SHT31;61467;50.674;4.618;2022-08-20T05:10:08;17.44;76.92
72650;SHT31;61467;50.674;4.618;2022-08-20T05:12:35;17.67;76.06
72650;SHT31;61467;50.674;4.618;2022-08-20T05:15:03;17.70;75.86
72650;SHT31;61467;50.674;4.618;2022-08-20T05:17:29;17.45;76.68
72650;SHT31;61467;50.674;4.618;2022-08-20T05:19:56;17.51;76.46
72650;SHT31;61467;50.674;4.618;2022-08-20T05:22:25;17.83;75.42
72650;SHT31;61467;50.674;4.618;2022-08-20T05:24:53;17.82;75.24
72650;SHT31;61467;50.674;4.618;2022-08-20T05:27:23;17.93;75.05
72650;SHT31;61467;50.674;4.618;2022-08-20T05:29:52;17.91;74.86
72650;SHT31;61467;50.674;4.618;2022-08-20T05:32:19;17.92;74.97
72650;SHT31;61467;50.674;4.618;2022-08-20T05:34:46;17.82;75.12
72650;SHT31;61467;50.674;4.618;2022-08-20T05:37:12;17.82;75.33
72650;SHT31;61467;50.674;4.618;2022-08-20T05:39:39;17.86;74.96
72650;SHT31;61467;50.674;4.618;2022-08-20T05:42:07;17.91;75.13
72650;SHT31;61467;50.674;4.618;2022-08-20T05:44:35;18.05;74.59
72650;SHT31;61467;50.674;4.618;2022-08-20T05:47:03;17.86;74.96
72650;SHT31;61467;50.674;4.618;2022-08-20T05:49:31;17.93;74.92
72650;SHT31;61467;50.674;4.618;2022-08-20T05:51:58;18.06;74.53
72650;SHT31;61467;50.674;4.618;2022-08-20T05:54:24;17.81;75.65
72650;SHT31;61467;50.674;4.618;2022-08-20T05:56:52;17.78;75.95
72650;SHT31;61467;50.674;4.618;2022-08-20T05:59:21;17.82;75.60
72650;SHT31;61467;50.674;4.618;2022-08-20T06:01:48;17.79;76.39
72650;SHT31;61467;50.674;4.618;2022-08-20T06:04:15;17.75;76.37
72650;SHT31;61467;50.674;4.618;2022-08-20T06:06:51;17.99;75.50
72650;SHT31;61467;50.674;4.618;2022-08-20T06:09:21;17.93;75.78
72650;SHT31;61467;50.674;4.618;2022-08-20T06:11:48;17.93;75.54
72650;SHT31;61467;50.674;4.618;2022-08-20T06:14:15;17.86;76.09
72650;SHT31;61467;50.674;4.618;2022-08-20T06:16:43;18.02;75.35
72650;SHT31;61467;50.674;4.618;2022-08-20T06:19:10;18.17;75.23
72650;SHT31;61467;50.674;4.618;2022-08-20T06:21:37;18.16;75.15
72650;SHT31;61467;50.674;4.618;2022-08-20T06:24:04;18.28;74.69
72650;SHT31;61467;50.674;4.618;2022-08-20T06:26:32;18.30;74.95
72650;SHT31;61467;50.674;4.618;2022-08-20T06:29:00;18.12;75.49
72650;SHT31;61467;50.674;4.618;2022-08-20T06:31:26;17.93;76.44
72650;SHT31;61467;50.674;4.618;2022-08-20T06:33:54;17.91;76.87
72650;SHT31;61467;50.674;4.618;2022-08-20T06:36:21;17.92;77.01
72650;SHT31;61467;50.674;4.618;2022-08-20T06:38:49;18.33;75.47
72650;SHT31;61467;50.674;4.618;2022-08-20T06:41:16;18.46;75.02
72650;SHT31;61467;50.674;4.618;2022-08-20T06:43:42;18.51;74.96
72650;SHT31;61467;50.674;4.618;2022-08-20T06:46:10;18.75;74.32
72650;SHT31;61467;50.674;4.618;2022-08-20T06:48:37;18.65;75.06
72650;SHT31;61467;50.674;4.618;2022-08-20T06:51:05;18.44;76.22
72650;SHT31;61467;50.674;4.618;2022-08-20T06:53:32;18.44;76.08
72650;SHT31;61467;50.674;4.618;2022-08-20T06:55:59;18.90;74.28
72650;SHT31;61467;50.674;4.618;2022-08-20T06:58:26;19.39;72.88
72650;SHT31;61467;50.674;4.618;2022-08-20T07:00:57;19.46;72.44
72650;SHT31;61467;50.674;4.618;2022-08-20T07:03:24;19.96;70.84
72650;SHT31;61467;50.674;4.618;2022-08-20T07:05:51;19.87;71.09
72650;SHT31;61467;50.674;4.618;2022-08-20T07:08:19;20.25;69.92
72650;SHT31;61467;50.674;4.618;2022-08-20T07:10:47;20.17;70.05
72650;SHT31;61467;50.674;4.618;2022-08-20T07:13:14;20.41;69.44
72650;SHT31;61467;50.674;4.618;2022-08-20T07:15:41;20.47;69.59
72650;SHT31;61467;50.674;4.618;2022-08-20T07:18:10;20.71;69.04
72650;SHT31;61467;50.674;4.618;2022-08-20T07:20:38;20.32;70.31
72650;SHT31;61467;50.674;4.618;2022-08-20T07:23:06;20.38;70.25
72650;SHT31;61467;50.674;4.618;2022-08-20T07:25:38;20.40;70.39
72650;SHT31;61467;50.674;4.618;2022-08-20T07:28:07;20.10;71.64
72650;SHT31;61467;50.674;4.618;2022-08-20T07:30:35;20.11;71.91
72650;SHT31;61467;50.674;4.618;2022-08-20T07:33:19;20.04;72.69
72650;SHT31;61467;50.674;4.618;2022-08-20T07:35:46;20.17;72.32
72650;SHT31;61467;50.674;4.618;2022-08-20T07:38:14;20.44;71.63
72650;SHT31;61467;50.674;4.618;2022-08-20T07:40:44;20.49;71.49
72650;SHT31;61467;50.674;4.618;2022-08-20T07:43:14;20.58;71.51
72650;SHT31;61467;50.674;4.618;2022-08-20T07:45:41;20.61;71.54
72650;SHT31;61467;50.674;4.618;2022-08-20T07:48:10;20.96;70.27
72650;SHT31;61467;50.674;4.618;2022-08-20T07:50:38;21.09;69.91
72650;SHT31;61467;50.674;4.618;2022-08-20T07:53:06;21.12;69.93
72650;SHT31;61467;50.674;4.618;2022-08-20T07:55:32;21.23;69.51
72650;SHT31;61467;50.674;4.618;2022-08-20T07:58:06;21.09;69.50
72650;SHT31;61467;50.674;4.618;2022-08-20T08:00:33;21.41;69.31
72650;SHT31;61467;50.674;4.618;2022-08-20T08:03:00;21.14;69.87
72650;SHT31;61467;50.674;4.618;2022-08-20T08:05:27;21.09;69.70
72650;SHT31;61467;50.674;4.618;2022-08-20T08:07:54;21.07;69.62
72650;SHT31;61467;50.674;4.618;2022-08-20T08:10:23;21.16;69.59
72650;SHT31;61467;50.674;4.618;2022-08-20T08:12:52;21.07;69.83
72650;SHT31;61467;50.674;4.618;2022-08-20T08:15:23;21.36;69.35
72650;SHT31;61467;50.674;4.618;2022-08-20T08:17:53;21.43;68.19
72650;SHT31;61467;50.674;4.618;2022-08-20T08:20:21;21.39;68.93
72650;SHT31;61467;50.674;4.618;2022-08-20T08:22:49;21.57;68.67
72650;SHT31;61467;50.674;4.618;2022-08-20T08:25:16;21.50;69.21
72650;SHT31;61467;50.674;4.618;2022-08-20T08:27:43;21.80;67.20
72650;SHT31;61467;50.674;4.618;2022-08-20T08:30:13;21.71;67.92
72650;SHT31;61467;50.674;4.618;2022-08-20T08:32:42;21.31;68.69
72650;SHT31;61467;50.674;4.618;2022-08-20T08:35:23;21.62;67.50
72650;SHT31;61467;50.674;4.618;2022-08-20T08:37:50;21.94;66.10
72650;SHT31;61467;50.674;4.618;2022-08-20T08:40:18;22.20;65.22
72650;SHT31;61467;50.674;4.618;2022-08-20T08:42:47;22.46;64.11
72650;SHT31;61467;50.674;4.618;2022-08-20T08:45:18;22.11;63.83
72650;SHT31;61467;50.674;4.618;2022-08-20T08:47:46;22.53;63.54
72650;SHT31;61467;50.674;4.618;2022-08-20T08:50:19;22.63;63.46
72650;SHT31;61467;50.674;4.618;2022-08-20T08:52:49;22.30;60.94
72650;SHT31;61467;50.674;4.618;2022-08-20T08:55:20;22.29;62.25
72650;SHT31;61467;50.674;4.618;2022-08-20T08:57:48;22.39;63.07
72650;SHT31;61467;50.674;4.618;2022-08-20T09:00:17;22.26;62.13
72650;SHT31;61467;50.674;4.618;2022-08-20T09:02:54;22.26;60.21
72650;SHT31;61467;50.674;4.618;2022-08-20T09:05:26;22.12;58.88
72650;SHT31;61467;50.674;4.618;2022-08-20T09:07:56;21.98;58.66
72650;SHT31;61467;50.674;4.618;2022-08-20T09:10:23;22.19;58.67
72650;SHT31;61467;50.674;4.618;2022-08-20T09:12:50;21.94;59.89
72650;SHT31;61467;50.674;4.618;2022-08-20T09:15:17;21.55;57.97
72650;SHT31;61467;50.674;4.618;2022-08-20T09:17:45;22.05;58.47
72650;SHT31;61467;50.674;4.618;2022-08-20T09:20:13;22.08;57.13
72650;SHT31;61467;50.674;4.618;2022-08-20T09:22:40;22.08;56.48
72650;SHT31;61467;50.674;4.618;2022-08-20T09:25:07;22.46;57.71
72650;SHT31;61467;50.674;4.618;2022-08-20T09:27:34;22.49;54.10
72650;SHT31;61467;50.674;4.618;2022-08-20T09:30:01;22.30;53.26
72650;SHT31;61467;50.674;4.618;2022-08-20T09:32:28;22.59;53.18
72650;SHT31;61467;50.674;4.618;2022-08-20T09:34:55;23.10;54.19
72650;SHT31;61467;50.674;4.618;2022-08-20T09:37:26;23.29;52.04
72650;SHT31;61467;50.674;4.618;2022-08-20T09:39:52;23.34;50.97
72650;SHT31;61467;50.674;4.618;2022-08-20T09:42:21;23.42;50.79
72650;SHT31;61467;50.674;4.618;2022-08-20T09:44:48;23.47;50.63
72650;SHT31;61467;50.674;4.618;2022-08-20T09:47:16;23.65;50.18
72650;SHT31;61467;50.674;4.618;2022-08-20T09:49:43;23.75;49.21
72650;SHT31;61467;50.674;4.618;2022-08-20T09:52:19;23.52;49.08
72650;SHT31;61467;50.674;4.618;2022-08-20T09:54:47;22.96;49.64
72650;SHT31;61467;50.674;4.618;2022-08-20T09:57:15;22.81;53.38
72650;SHT31;61467;50.674;4.618;2022-08-20T09:59:42;22.67;50.10
72650;SHT31;61467;50.674;4.618;2022-08-20T10:02:09;22.86;52.08
72650;SHT31;61467;50.674;4.618;2022-08-20T10:04:35;23.00;49.95
72650;SHT31;61467;50.674;4.618;2022-08-20T10:07:06;23.06;47.75
72650;SHT31;61467;50.674;4.618;2022-08-20T10:09:33;23.41;48.78
72650;SHT31;61467;50.674;4.618;2022-08-20T10:12:01;23.37;48.36
72650;SHT31;61467;50.674;4.618;2022-08-20T10:14:28;23.52;46.16
72650;SHT31;61467;50.674;4.618;2022-08-20T10:16:56;23.52;46.44
72650;SHT31;61467;50.674;4.618;2022-08-20T10:19:23;23.61;47.86
72650;SHT31;61467;50.674;4.618;2022-08-20T10:21:49;24.06;46.49
72650;SHT31;61467;50.674;4.618;2022-08-20T10:24:16;24.24;45.96
72650;SHT31;61467;50.674;4.618;2022-08-20T10:26:43;23.99;45.33
72650;SHT31;61467;50.674;4.618;2022-08-20T10:29:11;23.85;45.58
72650;SHT31;61467;50.674;4.618;2022-08-20T10:31:38;24.21;46.54
72650;SHT31;61467;50.674;4.618;2022-08-20T10:34:04;24.16;44.77
72650;SHT31;61467;50.674;4.618;2022-08-20T10:36:31;23.66;45.18
72650;SHT31;61467;50.674;4.618;2022-08-20T10:38:58;24.06;47.45
72650;SHT31;61467;50.674;4.618;2022-08-20T10:41:25;24.29;44.67
72650;SHT31;61467;50.674;4.618;2022-08-20T10:43:52;24.53;44.65
72650;SHT31;61467;50.674;4.618;2022-08-20T10:46:20;24.67;44.81
72650;SHT31;61467;50.674;4.618;2022-08-20T10:48:47;24.82;43.97
72650;SHT31;61467;50.674;4.618;2022-08-20T10:51:13;24.78;43.88
72650;SHT31;61467;50.674;4.618;2022-08-20T10:53:40;24.30;44.79
72650;SHT31;61467;50.674;4.618;2022-08-20T10:56:07;23.88;45.84
72650;SHT31;61467;50.674;4.618;2022-08-20T10:58:34;23.80;45.39
72650;SHT31;61467;50.674;4.618;2022-08-20T11:01:00;23.75;45.03
72650;SHT31;61467;50.674;4.618;2022-08-20T11:03:28;24.36;46.60
72650;SHT31;61467;50.674;4.618;2022-08-20T11:05:55;24.17;44.18
72650;SHT31;61467;50.674;4.618;2022-08-20T11:08:22;23.85;44.16
72650;SHT31;61467;50.674;4.618;2022-08-20T11:10:49;23.80;44.60
72650;SHT31;61467;50.674;4.618;2022-08-20T11:13:16;23.63;44.99
72650;SHT31;61467;50.674;4.618;2022-08-20T11:15:43;23.88;46.16
72650;SHT31;61467;50.674;4.618;2022-08-20T11:18:11;23.85;43.83
72650;SHT31;61467;50.674;4.618;2022-08-20T11:20:40;24.30;43.59
72650;SHT31;61467;50.674;4.618;2022-08-20T11:23:06;24.84;43.09
72650;SHT31;61467;50.674;4.618;2022-08-20T11:25:33;24.95;42.76
72650;SHT31;61467;50.674;4.618;2022-08-20T11:28:00;24.79;43.35
72650;SHT31;61467;50.674;4.618;2022-08-20T11:30:29;24.58;41.37
72650;SHT31;61467;50.674;4.618;2022-08-20T11:32:57;24.05;41.11
72650;SHT31;61467;50.674;4.618;2022-08-20T11:35:25;24.37;41.90
72650;SHT31;61467;50.674;4.618;2022-08-20T11:37:54;24.17;41.33
72650;SHT31;61467;50.674;4.618;2022-08-20T11:40:22;24.02;41.07
72650;SHT31;61467;50.674;4.618;2022-08-20T11:42:49;24.19;42.18
72650;SHT31;61467;50.674;4.618;2022-08-20T11:45:16;24.69;41.52
72650;SHT31;61467;50.674;4.618;2022-08-20T11:47:43;25.06;42.76
72650;SHT31;61467;50.674;4.618;2022-08-20T11:50:13;25.32;39.19
72650;SHT31;61467;50.674;4.618;2022-08-20T11:52:41;25.56;40.39
72650;SHT31;61467;50.674;4.618;2022-08-20T11:55:11;25.81;39.25
72650;SHT31;61467;50.674;4.618;2022-08-20T11:57:41;25.86;39.43
72650;SHT31;61467;50.674;4.618;2022-08-20T12:00:12;25.80;39.80
72650;SHT31;61467;50.674;4.618;2022-08-20T12:02:39;25.63;39.31
72650;SHT31;61467;50.674;4.618;2022-08-20T12:05:06;25.96;39.22
72650;SHT31;61467;50.674;4.618;2022-08-20T12:07:33;25.94;37.68
72650;SHT31;61467;50.674;4.618;2022-08-20T12:10:00;26.17;37.75
72650;SHT31;61467;50.674;4.618;2022-08-20T12:12:28;25.86;37.43
72650;SHT31;61467;50.674;4.618;2022-08-20T12:14:55;26.04;38.88
72650;SHT31;61467;50.674;4.618;2022-08-20T12:17:24;26.08;37.86
72650;SHT31;61467;50.674;4.618;2022-08-20T12:19:53;26.04;37.24
72650;SHT31;61467;50.674;4.618;2022-08-20T12:22:20;25.47;38.83
72650;SHT31;61467;50.674;4.618;2022-08-20T12:24:47;25.46;38.63
72650;SHT31;61467;50.674;4.618;2022-08-20T12:27:16;25.74;39.81
72650;SHT31;61467;50.674;4.618;2022-08-20T12:29:46;25.83;39.51
72650;SHT31;61467;50.674;4.618;2022-08-20T12:32:14;26.02;37.74
72650;SHT31;61467;50.674;4.618;2022-08-20T12:34:41;26.32;37.79
72650;SHT31;61467;50.674;4.618;2022-08-20T12:37:11;26.52;37.96
72650;SHT31;61467;50.674;4.618;2022-08-20T12:39:38;26.66;36.46
72650;SHT31;61467;50.674;4.618;2022-08-20T12:42:06;26.62;37.27
72650;SHT31;61467;50.674;4.618;2022-08-20T12:44:33;26.76;36.77
72650;SHT31;61467;50.674;4.618;2022-08-20T12:47:07;26.72;35.03
72650;SHT31;61467;50.674;4.618;2022-08-20T12:49:34;26.42;34.86
72650;SHT31;61467;50.674;4.618;2022-08-20T12:52:01;26.05;35.77
72650;SHT31;61467;50.674;4.618;2022-08-20T12:54:28;26.14;36.59
72650;SHT31;61467;50.674;4.618;2022-08-20T12:56:56;26.39;36.23
72650;SHT31;61467;50.674;4.618;2022-08-20T12:59:23;26.52;36.83
72650;SHT31;61467;50.674;4.618;2022-08-20T13:01:50;26.46;36.30
72650;SHT31;61467;50.674;4.618;2022-08-20T13:04:19;26.41;36.68
72650;SHT31;61467;50.674;4.618;2022-08-20T13:06:47;26.85;36.35
72650;SHT31;61467;50.674;4.618;2022-08-20T13:09:14;27.11;35.02
72650;SHT31;61467;50.674;4.618;2022-08-20T13:11:41;27.00;36.34
72650;SHT31;61467;50.674;4.618;2022-08-20T13:14:08;26.93;34.78
72650;SHT31;61467;50.674;4.618;2022-08-20T13:16:35;27.07;35.70
72650;SHT31;61467;50.674;4.618;2022-08-20T13:19:02;27.33;35.22
72650;SHT31;61467;50.674;4.618;2022-08-20T13:21:30;27.37;35.00
72650;SHT31;61467;50.674;4.618;2022-08-20T13:23:56;27.34;34.77
72650;SHT31;61467;50.674;4.618;2022-08-20T13:26:23;27.58;34.38
72650;SHT31;61467;50.674;4.618;2022-08-20T13:28:50;27.82;35.29
72650;SHT31;61467;50.674;4.618;2022-08-20T13:31:17;27.57;35.12
72650;SHT31;61467;50.674;4.618;2022-08-20T13:33:43;27.72;35.58
72650;SHT31;61467;50.674;4.618;2022-08-20T13:36:10;27.82;35.78
72650;SHT31;61467;50.674;4.618;2022-08-20T13:38:38;27.92;34.72
72650;SHT31;61467;50.674;4.618;2022-08-20T13:41:05;27.78;35.25
72650;SHT31;61467;50.674;4.618;2022-08-20T13:43:32;27.84;34.35
72650;SHT31;61467;50.674;4.618;2022-08-20T13:45:59;27.96;33.77
72650;SHT31;61467;50.674;4.618;2022-08-20T13:48:25;27.89;34.88
72650;SHT31;61467;50.674;4.618;2022-08-20T13:50:52;27.84;33.69
72650;SHT31;61467;50.674;4.618;2022-08-20T13:53:19;27.78;34.02
72650;SHT31;61467;50.674;4.618;2022-08-20T13:55:47;27.68;33.38
72650;SHT31;61467;50.674;4.618;2022-08-20T13:58:14;28.10;33.87
72650;SHT31;61467;50.674;4.618;2022-08-20T14:00:42;27.99;33.06
72650;SHT31;61467;50.674;4.618;2022-08-20T14:03:09;27.64;32.99
72650;SHT31;61467;50.674;4.618;2022-08-20T14:05:36;27.72;34.70
72650;SHT31;61467;50.674;4.618;2022-08-20T14:08:05;27.92;32.71
72650;SHT31;61467;50.674;4.618;2022-08-20T14:10:32;27.86;33.74
72650;SHT31;61467;50.674;4.618;2022-08-20T14:13:01;27.55;33.93
72650;SHT31;61467;50.674;4.618;2022-08-20T14:15:30;27.38;33.01
72650;SHT31;61467;50.674;4.618;2022-08-20T14:17:56;27.61;32.88
72650;SHT31;61467;50.674;4.618;2022-08-20T14:20:25;27.74;34.36
72650;SHT31;61467;50.674;4.618;2022-08-20T14:22:52;28.17;33.61
72650;SHT31;61467;50.674;4.618;2022-08-20T14:25:20;28.26;32.55
72650;SHT31;61467;50.674;4.618;2022-08-20T14:27:48;27.85;32.18
72650;SHT31;61467;50.674;4.618;2022-08-20T14:30:19;27.80;32.62
72650;SHT31;61467;50.674;4.618;2022-08-20T14:32:46;27.64;33.40
72650;SHT31;61467;50.674;4.618;2022-08-20T14:35:13;27.58;33.22
72650;SHT31;61467;50.674;4.618;2022-08-20T14:37:42;27.85;33.23
72650;SHT31;61467;50.674;4.618;2022-08-20T14:40:11;27.61;32.66
72650;SHT31;61467;50.674;4.618;2022-08-20T14:42:39;27.06;33.15
72650;SHT31;61467;50.674;4.618;2022-08-20T14:45:07;27.36;33.62
72650;SHT31;61467;50.674;4.618;2022-08-20T14:47:38;27.47;34.02
72650;SHT31;61467;50.674;4.618;2022-08-20T14:50:08;27.59;33.81
72650;SHT31;61467;50.674;4.618;2022-08-20T14:52:35;27.37;33.87
72650;SHT31;61467;50.674;4.618;2022-08-20T14:55:03;26.75;33.87
72650;SHT31;61467;50.674;4.618;2022-08-20T14:57:30;26.76;34.06
72650;SHT31;61467;50.674;4.618;2022-08-20T14:59:57;27.11;34.46
72650;SHT31;61467;50.674;4.618;2022-08-20T15:02:24;26.78;33.88
72650;SHT31;61467;50.674;4.618;2022-08-20T15:04:52;27.51;34.38
72650;SHT31;61467;50.674;4.618;2022-08-20T15:07:22;27.50;32.47
72650;SHT31;61467;50.674;4.618;2022-08-20T15:09:50;27.57;32.87
72650;SHT31;61467;50.674;4.618;2022-08-20T15:12:17;27.57;32.31
72650;SHT31;61467;50.674;4.618;2022-08-20T15:14:44;27.74;33.99
72650;SHT31;61467;50.674;4.618;2022-08-20T15:17:17;27.57;33.04
72650;SHT31;61467;50.674;4.618;2022-08-20T15:19:43;27.41;32.41
72650;SHT31;61467;50.674;4.618;2022-08-20T15:22:12;27.59;32.74
72650;SHT31;61467;50.674;4.618;2022-08-20T15:24:38;27.37;33.01
72650;SHT31;61467;50.674;4.618;2022-08-20T15:27:12;27.00;33.52
72650;SHT31;61467;50.674;4.618;2022-08-20T15:29:40;26.72;34.36
72650;SHT31;61467;50.674;4.618;2022-08-20T15:32:06;27.33;33.81
72650;SHT31;61467;50.674;4.618;2022-08-20T15:34:34;27.58;33.16